createdAt,value
2018-01-16T00:00:45.113Z,0
2018-01-16T00:01:44.869Z,0
2018-01-16T00:02:45.133Z,0
2018-01-16T00:03:45.344Z,0
2018-01-16T00:04:45.148Z,0
2018-01-16T00:05:45.080Z,0
2018-01-16T00:06:45.338Z,0
2018-01-16T00:07:45.078Z,0
2018-01-16T00:08:45.313Z,0
2018-01-16T00:09:44.820Z,0
2018-01-16T00:10:45.072Z,0
2018-01-16T00:11:45.046Z,0
2018-01-16T00:12:45.035Z,0
2018-01-16T00:13:45.029Z,0
2018-01-16T00:14:45.027Z,0
2018-01-16T00:15:44.767Z,0
2018-01-16T00:16:45.464Z,0
2018-01-16T00:17:45.258Z,0
2018-01-16T00:18:45.261Z,0
2018-01-16T00:19:45.232Z,0
2018-01-16T00:20:44.744Z,0
2018-01-16T00:21:44.737Z,0
2018-01-16T00:22:45.021Z,0
2018-01-16T00:23:44.983Z,0
2018-01-16T00:24:44.703Z,0
2018-01-16T00:25:44.960Z,0
2018-01-16T00:26:45.197Z,0
2018-01-16T00:27:44.940Z,0
2018-01-16T00:28:44.935Z,0
2018-01-16T00:29:44.922Z,0
2018-01-16T00:30:44.922Z,0
2018-01-16T00:31:44.655Z,0
2018-01-16T00:32:44.935Z,0
2018-01-16T00:33:44.902Z,0
2018-01-16T00:34:44.895Z,0
2018-01-16T00:35:44.630Z,0
2018-01-16T00:36:44.886Z,0
2018-01-16T00:37:44.875Z,0
2018-01-16T00:38:44.868Z,0
2018-01-16T00:39:44.857Z,0
2018-01-16T00:40:44.607Z,0
2018-01-16T00:41:45.095Z,0
2018-01-16T00:42:44.854Z,0
2018-01-16T00:43:44.855Z,0
2018-01-16T00:44:44.831Z,0
2018-01-16T00:45:45.081Z,0
2018-01-16T00:46:48.018Z,0
2018-01-16T00:47:45.058Z,0
2018-01-16T00:48:45.053Z,0
2018-01-16T00:49:44.552Z,0
2018-01-16T00:50:44.290Z,0
2018-01-16T00:51:44.782Z,0
2018-01-16T00:52:44.785Z,0
2018-01-16T00:53:45.026Z,0
2018-01-16T00:54:44.787Z,0
2018-01-16T00:55:44.772Z,0
2018-01-16T00:56:44.778Z,0
2018-01-16T00:57:44.759Z,0
2018-01-16T00:58:44.740Z,0
2018-01-16T00:59:44.750Z,0
2018-01-16T01:00:44.736Z,0
2018-01-16T01:01:47.175Z,0
2018-01-16T01:02:44.729Z,0
2018-01-16T01:03:44.704Z,0
2018-01-16T01:04:44.189Z,0
2018-01-16T01:05:44.443Z,0
2018-01-16T01:06:44.689Z,0
2018-01-16T01:07:44.931Z,0
2018-01-16T01:08:44.948Z,0
2018-01-16T01:09:44.925Z,0
2018-01-16T01:10:44.433Z,0
2018-01-16T01:11:44.144Z,0
2018-01-16T01:12:44.649Z,0
2018-01-16T01:13:44.394Z,0
2018-01-16T01:14:44.652Z,0
2018-01-16T01:15:44.647Z,0
2018-01-16T01:16:44.642Z,0
2018-01-16T01:17:44.866Z,0
2018-01-16T01:18:44.379Z,0
2018-01-16T01:19:44.620Z,0
2018-01-16T01:20:44.852Z,0
2018-01-16T01:21:44.346Z,0
2018-01-16T01:22:44.355Z,0
2018-01-16T01:23:44.828Z,0
2018-01-16T01:24:44.827Z,0
2018-01-16T01:25:44.573Z,0
2018-01-16T01:26:44.314Z,0
2018-01-16T01:27:44.870Z,0
2018-01-16T01:28:44.571Z,0
2018-01-16T01:29:44.537Z,0
2018-01-16T01:30:44.551Z,0
2018-01-16T01:31:44.777Z,0
2018-01-16T01:32:46.973Z,0
2018-01-16T01:33:44.527Z,0
2018-01-16T01:34:44.521Z,0
2018-01-16T01:35:44.750Z,0
2018-01-16T01:36:44.500Z,0
2018-01-16T01:37:44.748Z,0
2018-01-16T01:38:44.537Z,0
2018-01-16T01:39:44.476Z,0
2018-01-16T01:40:44.497Z,0
2018-01-16T01:41:44.478Z,0
2018-01-16T01:42:43.955Z,0
2018-01-16T01:43:44.214Z,0
2018-01-16T01:44:44.719Z,0
2018-01-16T01:45:44.481Z,0
2018-01-16T01:46:44.431Z,0
2018-01-16T01:47:45.566Z,0
2018-01-16T01:48:44.433Z,0
2018-01-16T01:49:44.422Z,0
2018-01-16T01:50:44.672Z,0
2018-01-16T01:51:44.399Z,0
2018-01-16T01:52:44.405Z,0
2018-01-16T01:53:44.433Z,0
2018-01-16T01:54:43.879Z,0
2018-01-16T01:55:44.649Z,0
2018-01-16T01:56:44.385Z,0
2018-01-16T01:57:43.862Z,0
2018-01-16T01:58:43.869Z,0
2018-01-16T01:59:44.351Z,0
2018-01-16T02:00:44.724Z,0
2018-01-16T02:01:44.343Z,0
2018-01-16T02:02:44.620Z,0
2018-01-16T02:03:44.087Z,0
2018-01-16T02:04:44.324Z,0
2018-01-16T02:05:44.061Z,0
2018-01-16T02:06:44.054Z,0
2018-01-16T02:07:44.298Z,0
2018-01-16T02:08:44.061Z,0
2018-01-16T02:09:44.576Z,0
2018-01-16T02:10:44.307Z,0
2018-01-16T02:11:44.535Z,0
2018-01-16T02:12:44.535Z,0
2018-01-16T02:13:44.292Z,0
2018-01-16T02:14:44.011Z,0
2018-01-16T02:15:44.002Z,0
2018-01-16T02:16:44.507Z,0
2018-01-16T02:17:44.261Z,0
2018-01-16T02:18:44.789Z,0
2018-01-16T02:19:44.512Z,0
2018-01-16T02:20:44.475Z,0
2018-01-16T02:21:43.962Z,0
2018-01-16T02:22:43.994Z,0
2018-01-16T02:23:44.454Z,0
2018-01-16T02:24:44.211Z,0
2018-01-16T02:25:44.208Z,0
2018-01-16T02:26:44.443Z,0
2018-01-16T02:27:44.464Z,0
2018-01-16T02:28:43.925Z,0
2018-01-16T02:29:44.173Z,0
2018-01-16T02:30:44.439Z,0
2018-01-16T02:31:44.176Z,0
2018-01-16T02:32:43.903Z,0
2018-01-16T02:33:46.261Z,0
2018-01-16T02:34:44.164Z,0
2018-01-16T02:35:44.387Z,0
2018-01-16T02:36:44.385Z,0
2018-01-16T02:37:44.129Z,0
2018-01-16T02:38:44.130Z,0
2018-01-16T02:39:44.362Z,0
2018-01-16T02:40:44.356Z,0
2018-01-16T02:41:44.350Z,0
2018-01-16T02:42:44.096Z,0
2018-01-16T02:43:44.377Z,0
2018-01-16T02:44:44.085Z,0
2018-01-16T02:45:44.079Z,0
2018-01-16T02:46:44.408Z,0
2018-01-16T02:47:44.081Z,0
2018-01-16T02:48:44.640Z,0
2018-01-16T02:49:44.320Z,0
2018-01-16T02:50:44.302Z,0
2018-01-16T02:51:44.287Z,0
2018-01-16T02:52:43.777Z,0
2018-01-16T02:53:44.278Z,0
2018-01-16T02:54:44.024Z,0
2018-01-16T02:55:44.015Z,0
2018-01-16T02:56:44.255Z,0
2018-01-16T02:57:44.255Z,0
2018-01-16T02:58:44.002Z,0
2018-01-16T02:59:44.246Z,0
2018-01-16T03:00:43.733Z,0
2018-01-16T03:01:44.231Z,0
2018-01-16T03:02:44.229Z,0
2018-01-16T03:03:43.982Z,0
2018-01-16T03:04:44.217Z,0
2018-01-16T03:05:43.971Z,0
2018-01-16T03:06:44.222Z,0
2018-01-16T03:07:44.213Z,0
2018-01-16T03:08:44.187Z,0
2018-01-16T03:09:44.184Z,0
2018-01-16T03:10:43.930Z,0
2018-01-16T03:11:44.176Z,0
2018-01-16T03:12:43.928Z,0
2018-01-16T03:13:43.920Z,0
2018-01-16T03:14:44.158Z,0
2018-01-16T03:15:44.156Z,0
2018-01-16T03:16:44.150Z,0
2018-01-16T03:17:43.635Z,0
2018-01-16T03:18:47.384Z,0
2018-01-16T03:19:44.148Z,0
2018-01-16T03:20:43.876Z,0
2018-01-16T03:21:44.113Z,0
2018-01-16T03:22:43.912Z,0
2018-01-16T03:23:43.598Z,0
2018-01-16T03:24:44.112Z,0
2018-01-16T03:25:44.099Z,0
2018-01-16T03:26:43.850Z,0
2018-01-16T03:27:43.825Z,0
2018-01-16T03:28:43.825Z,0
2018-01-16T03:29:43.814Z,0
2018-01-16T03:30:44.062Z,0
2018-01-16T03:31:43.804Z,0
2018-01-16T03:32:43.804Z,0
2018-01-16T03:33:44.049Z,0
2018-01-16T03:34:43.789Z,0
2018-01-16T03:35:43.274Z,0
2018-01-16T03:36:43.533Z,0
2018-01-16T03:37:43.520Z,0
2018-01-16T03:38:43.766Z,0
2018-01-16T03:39:43.500Z,0
2018-01-16T03:40:43.752Z,0
2018-01-16T03:41:43.746Z,0
2018-01-16T03:42:43.735Z,0
2018-01-16T03:43:43.747Z,0
2018-01-16T03:44:43.726Z,0
2018-01-16T03:45:43.966Z,0
2018-01-16T03:46:43.963Z,0
2018-01-16T03:47:43.969Z,0
2018-01-16T03:48:43.949Z,0
2018-01-16T03:49:43.697Z,0
2018-01-16T03:50:43.703Z,0
2018-01-16T03:51:43.431Z,0
2018-01-16T03:52:43.422Z,0
2018-01-16T03:53:43.669Z,0
2018-01-16T03:54:43.672Z,0
2018-01-16T03:55:43.912Z,0
2018-01-16T03:56:43.907Z,0
2018-01-16T03:57:43.414Z,0
2018-01-16T03:58:43.890Z,0
2018-01-16T03:59:43.637Z,0
2018-01-16T04:00:43.884Z,0
2018-01-16T04:01:43.893Z,0
2018-01-16T04:02:43.641Z,0
2018-01-16T04:03:43.358Z,0
2018-01-16T04:04:43.352Z,0
2018-01-16T04:05:43.849Z,0
2018-01-16T04:06:43.336Z,0
2018-01-16T04:07:43.333Z,0
2018-01-16T04:08:43.586Z,0
2018-01-16T04:09:43.575Z,0
2018-01-16T04:10:43.581Z,0
2018-01-16T04:11:43.556Z,0
2018-01-16T04:12:43.300Z,0
2018-01-16T04:13:43.796Z,0
2018-01-16T04:14:43.537Z,0
2018-01-16T04:15:43.051Z,0
2018-01-16T04:16:43.035Z,0
2018-01-16T04:17:43.517Z,0
2018-01-16T04:18:45.466Z,0
2018-01-16T04:19:43.257Z,0
2018-01-16T04:20:43.262Z,0
2018-01-16T04:21:43.492Z,0
2018-01-16T04:22:43.494Z,0
2018-01-16T04:23:43.232Z,0
2018-01-16T04:24:43.731Z,0
2018-01-16T04:25:43.725Z,0
2018-01-16T04:26:43.465Z,0
2018-01-16T04:27:43.205Z,0
2018-01-16T04:28:43.199Z,0
2018-01-16T04:29:43.440Z,0
2018-01-16T04:30:43.690Z,0
2018-01-16T04:31:43.682Z,0
2018-01-16T04:32:43.418Z,0
2018-01-16T04:33:43.668Z,0
2018-01-16T04:34:43.655Z,0
2018-01-16T04:35:43.407Z,0
2018-01-16T04:36:43.396Z,0
2018-01-16T04:37:43.398Z,0
2018-01-16T04:38:43.382Z,0
2018-01-16T04:39:43.374Z,0
2018-01-16T04:40:43.381Z,0
2018-01-16T04:41:43.370Z,0
2018-01-16T04:42:43.621Z,0
2018-01-16T04:43:43.114Z,0
2018-01-16T04:44:43.594Z,0
2018-01-16T04:45:43.337Z,0
2018-01-16T04:46:43.593Z,0
2018-01-16T04:47:43.575Z,0
2018-01-16T04:48:43.318Z,0
2018-01-16T04:49:43.860Z,0
2018-01-16T04:50:43.564Z,0
2018-01-16T04:51:43.305Z,0
2018-01-16T04:52:43.562Z,0
2018-01-16T04:53:43.278Z,0
2018-01-16T04:54:43.292Z,0
2018-01-16T04:55:43.295Z,0
2018-01-16T04:56:43.016Z,0
2018-01-16T04:57:43.533Z,0
2018-01-16T04:58:43.505Z,0
2018-01-16T04:59:43.014Z,0
2018-01-16T05:00:42.737Z,0
2018-01-16T05:01:43.232Z,0
2018-01-16T05:02:43.236Z,0
2018-01-16T05:03:43.234Z,0
2018-01-16T05:04:42.992Z,0
2018-01-16T05:05:43.471Z,0
2018-01-16T05:06:42.956Z,0
2018-01-16T05:07:43.215Z,0
2018-01-16T05:08:42.969Z,0
2018-01-16T05:09:43.196Z,0
2018-01-16T05:10:43.439Z,0
2018-01-16T05:11:42.687Z,0
2018-01-16T05:12:42.677Z,0
2018-01-16T05:13:43.418Z,0
2018-01-16T05:14:43.163Z,0
2018-01-16T05:15:43.148Z,0
2018-01-16T05:16:42.899Z,0
2018-01-16T05:17:43.137Z,0
2018-01-16T05:18:43.392Z,0
2018-01-16T05:19:44.928Z,0
2018-01-16T05:20:43.127Z,0
2018-01-16T05:21:43.111Z,0
2018-01-16T05:22:42.851Z,0
2018-01-16T05:23:43.106Z,0
2018-01-16T05:24:42.845Z,0
2018-01-16T05:25:42.856Z,0
2018-01-16T05:26:43.088Z,0
2018-01-16T05:27:43.122Z,0
2018-01-16T05:28:43.318Z,0
2018-01-16T05:29:43.312Z,0
2018-01-16T05:30:43.067Z,0
2018-01-16T05:31:43.058Z,0
2018-01-16T05:32:43.076Z,0
2018-01-16T05:33:43.037Z,0
2018-01-16T05:34:43.027Z,0
2018-01-16T05:35:43.283Z,0
2018-01-16T05:36:43.062Z,0
2018-01-16T05:37:43.019Z,0
2018-01-16T05:38:42.508Z,0
2018-01-16T05:39:42.748Z,0
2018-01-16T05:40:43.244Z,0
2018-01-16T05:41:42.738Z,0
2018-01-16T05:42:42.988Z,0
2018-01-16T05:43:42.973Z,0
2018-01-16T05:44:42.973Z,0
2018-01-16T05:45:43.219Z,0
2018-01-16T05:46:42.972Z,0
2018-01-16T05:47:43.214Z,0
2018-01-16T05:48:42.958Z,0
2018-01-16T05:49:44.040Z,0
2018-01-16T05:50:42.681Z,0
2018-01-16T05:51:42.698Z,0
2018-01-16T05:52:42.681Z,0
2018-01-16T05:53:43.166Z,0
2018-01-16T05:54:42.904Z,0
2018-01-16T05:55:42.900Z,0
2018-01-16T05:56:43.147Z,0
2018-01-16T05:57:42.898Z,0
2018-01-16T05:58:42.646Z,0
2018-01-16T05:59:42.888Z,0
2018-01-16T06:00:42.634Z,0
2018-01-16T06:01:43.145Z,0
2018-01-16T06:02:43.116Z,0
2018-01-16T06:03:43.104Z,0
2018-01-16T06:04:43.698Z,0
2018-01-16T06:05:42.841Z,0
2018-01-16T06:06:43.091Z,0
2018-01-16T06:07:42.830Z,0
2018-01-16T06:08:43.087Z,0
2018-01-16T06:09:43.066Z,0
2018-01-16T06:10:43.059Z,0
2018-01-16T06:11:42.811Z,0
2018-01-16T06:12:42.294Z,0
2018-01-16T06:13:43.058Z,0
2018-01-16T06:14:42.793Z,0
2018-01-16T06:15:42.783Z,0
2018-01-16T06:16:42.774Z,0
2018-01-16T06:17:43.030Z,0
2018-01-16T06:18:42.526Z,0
2018-01-16T06:19:46.158Z,0
2018-01-16T06:20:42.752Z,0
2018-01-16T06:21:42.765Z,0
2018-01-16T06:22:42.740Z,0
2018-01-16T06:23:42.985Z,0
2018-01-16T06:24:42.978Z,0
2018-01-16T06:25:42.832Z,0
2018-01-16T06:26:42.724Z,0
2018-01-16T06:27:42.478Z,0
2018-01-16T06:28:42.474Z,0
2018-01-16T06:29:42.700Z,0
2018-01-16T06:30:42.465Z,0
2018-01-16T06:31:42.196Z,0
2018-01-16T06:32:42.930Z,0
2018-01-16T06:33:42.699Z,0
2018-01-16T06:34:42.679Z,0
2018-01-16T06:35:43.993Z,0
2018-01-16T06:36:42.438Z,0
2018-01-16T06:37:42.430Z,0
2018-01-16T06:38:42.665Z,4
2018-01-16T06:39:42.889Z,4
2018-01-16T06:40:42.394Z,0
2018-01-16T06:41:42.901Z,4
2018-01-16T06:42:42.894Z,4
2018-01-16T06:43:42.642Z,4
2018-01-16T06:44:42.361Z,4
2018-01-16T06:45:42.610Z,0
2018-01-16T06:46:42.098Z,4
2018-01-16T06:47:42.660Z,8
2018-01-16T06:48:42.843Z,4
2018-01-16T06:49:42.331Z,4
2018-01-16T06:50:43.685Z,8
2018-01-16T06:51:42.612Z,12
2018-01-16T06:52:42.579Z,16
2018-01-16T06:53:42.584Z,16
2018-01-16T06:54:42.304Z,24
2018-01-16T06:55:42.560Z,28
2018-01-16T06:56:42.789Z,28
2018-01-16T06:57:42.539Z,32
2018-01-16T06:58:42.787Z,36
2018-01-16T06:59:42.551Z,40
2018-01-16T07:00:42.781Z,40
2018-01-16T07:01:42.546Z,48
2018-01-16T07:02:42.529Z,64
2018-01-16T07:03:42.246Z,76
2018-01-16T07:04:42.232Z,84
2018-01-16T07:05:42.493Z,92
2018-01-16T07:06:42.734Z,108
2018-01-16T07:07:42.486Z,136
2018-01-16T07:08:42.721Z,156
2018-01-16T07:09:42.719Z,180
2018-01-16T07:10:42.452Z,184
2018-01-16T07:11:42.544Z,164
2018-01-16T07:12:42.194Z,184
2018-01-16T07:13:42.440Z,236
2018-01-16T07:14:42.494Z,284
2018-01-16T07:15:42.444Z,320
2018-01-16T07:16:42.427Z,344
2018-01-16T07:17:42.430Z,356
2018-01-16T07:18:42.441Z,380
2018-01-16T07:19:42.432Z,416
2018-01-16T07:20:42.857Z,460
2018-01-16T07:21:42.643Z,504
2018-01-16T07:22:42.395Z,528
2018-01-16T07:23:42.658Z,548
2018-01-16T07:24:42.371Z,576
2018-01-16T07:25:41.868Z,576
2018-01-16T07:26:42.386Z,584
2018-01-16T07:27:42.340Z,564
2018-01-16T07:28:42.354Z,540
2018-01-16T07:29:42.080Z,532
2018-01-16T07:30:42.596Z,532
2018-01-16T07:31:42.612Z,560
2018-01-16T07:32:42.653Z,616
2018-01-16T07:33:42.311Z,616
2018-01-16T07:34:41.807Z,596
2018-01-16T07:35:41.814Z,568
2018-01-16T07:36:41.800Z,572
2018-01-16T07:37:42.311Z,580
2018-01-16T07:38:42.026Z,552
2018-01-16T07:39:42.276Z,504
2018-01-16T07:40:42.021Z,412
2018-01-16T07:41:42.031Z,348
2018-01-16T07:42:42.012Z,368
2018-01-16T07:43:42.545Z,376
2018-01-16T07:44:42.041Z,380
2018-01-16T07:45:42.529Z,332
2018-01-16T07:46:42.263Z,280
2018-01-16T07:47:42.231Z,260
2018-01-16T07:48:42.224Z,272
2018-01-16T07:49:42.483Z,336
2018-01-16T07:50:42.212Z,400
2018-01-16T07:51:43.041Z,420
2018-01-16T07:52:41.958Z,452
2018-01-16T07:53:42.209Z,500
2018-01-16T07:54:42.447Z,528
2018-01-16T07:55:42.442Z,484
2018-01-16T07:56:42.209Z,440
2018-01-16T07:57:41.943Z,400
2018-01-16T07:58:42.433Z,376
2018-01-16T07:59:42.156Z,352
2018-01-16T08:00:42.154Z,348
2018-01-16T08:01:41.907Z,336
2018-01-16T08:02:42.405Z,340
2018-01-16T08:03:41.886Z,344
2018-01-16T08:04:42.144Z,440
2018-01-16T08:05:42.135Z,584
2018-01-16T08:06:42.411Z,712
2018-01-16T08:07:42.150Z,736
2018-01-16T08:08:42.370Z,608
2018-01-16T08:09:42.354Z,488
2018-01-16T08:10:42.356Z,380
2018-01-16T08:11:42.371Z,288
2018-01-16T08:12:42.089Z,248
2018-01-16T08:13:42.376Z,252
2018-01-16T08:14:41.581Z,280
2018-01-16T08:15:42.086Z,316
2018-01-16T08:16:42.341Z,336
2018-01-16T08:17:42.314Z,324
2018-01-16T08:18:41.816Z,320
2018-01-16T08:19:41.556Z,336
2018-01-16T08:20:42.046Z,388
2018-01-16T08:21:42.294Z,504
2018-01-16T08:22:41.820Z,632
2018-01-16T08:23:42.041Z,780
2018-01-16T08:24:42.272Z,872
2018-01-16T08:25:42.018Z,1044
2018-01-16T08:26:42.012Z,1056
2018-01-16T08:27:41.503Z,1132
2018-01-16T08:28:41.765Z,1332
2018-01-16T08:29:41.992Z,1520
2018-01-16T08:30:42.234Z,1784
2018-01-16T08:31:41.992Z,1808
2018-01-16T08:32:41.979Z,1504
2018-01-16T08:33:41.714Z,1368
2018-01-16T08:34:41.960Z,1296
2018-01-16T08:35:41.947Z,1276
2018-01-16T08:37:13.853Z,1304
2018-01-16T08:37:41.941Z,1272
2018-01-16T08:38:42.207Z,1240
2018-01-16T08:39:41.941Z,1160
2018-01-16T08:40:41.928Z,1268
2018-01-16T08:41:41.930Z,1324
2018-01-16T08:42:41.912Z,1384
2018-01-16T08:43:41.916Z,1836
2018-01-16T08:44:41.900Z,2696
2018-01-16T08:45:41.897Z,2892
2018-01-16T08:46:42.715Z,2836
2018-01-16T08:47:41.898Z,2380
2018-01-16T08:48:41.888Z,2064
2018-01-16T08:49:42.136Z,1820
2018-01-16T08:50:41.887Z,1452
2018-01-16T08:51:43.298Z,1680
2018-01-16T08:52:41.608Z,1900
2018-01-16T08:53:41.855Z,2216
2018-01-16T08:54:41.843Z,2592
2018-01-16T08:55:41.592Z,2560
2018-01-16T08:56:41.841Z,2500
2018-01-16T08:57:42.097Z,2776
2018-01-16T08:58:41.592Z,3636
2018-01-16T08:59:41.829Z,2272
2018-01-16T09:00:41.813Z,1876
2018-01-16T09:01:42.065Z,1676
2018-01-16T09:02:41.572Z,1456
2018-01-16T09:03:41.557Z,1724
2018-01-16T09:04:41.542Z,2064
2018-01-16T09:05:41.787Z,2280
2018-01-16T09:06:41.545Z,2288
2018-01-16T09:07:41.778Z,2368
2018-01-16T09:08:41.293Z,2756
2018-01-16T09:09:42.018Z,3192
2018-01-16T09:10:42.015Z,3420
2018-01-16T09:11:42.014Z,3688
2018-01-16T09:12:41.759Z,3952
2018-01-16T09:13:42.006Z,4232
2018-01-16T09:14:41.741Z,4296
2018-01-16T09:15:41.738Z,4360
2018-01-16T09:16:41.734Z,4288
2018-01-16T09:17:41.742Z,3984
2018-01-16T09:18:41.977Z,4316
2018-01-16T09:19:41.470Z,4836
2018-01-16T09:20:41.471Z,6140
2018-01-16T09:21:42.268Z,5732
2018-01-16T09:22:41.715Z,4576
2018-01-16T09:23:41.491Z,3796
2018-01-16T09:24:41.460Z,3824
2018-01-16T09:25:41.949Z,3880
2018-01-16T09:26:41.691Z,3540
2018-01-16T09:27:41.683Z,3112
2018-01-16T09:28:41.678Z,2992
2018-01-16T09:29:41.790Z,2844
2018-01-16T09:30:41.936Z,2676
2018-01-16T09:31:41.915Z,2608
2018-01-16T09:32:41.926Z,2596
2018-01-16T09:33:41.672Z,2668
2018-01-16T09:34:41.656Z,2644
2018-01-16T09:35:42.031Z,2672
2018-01-16T09:36:41.904Z,2960
2018-01-16T09:37:41.382Z,3356
2018-01-16T09:38:41.900Z,3772
2018-01-16T09:39:41.880Z,3912
2018-01-16T09:40:41.869Z,3580
2018-01-16T09:41:41.667Z,3156
2018-01-16T09:42:41.865Z,2924
2018-01-16T09:43:41.616Z,3144
2018-01-16T09:44:41.363Z,3168
2018-01-16T09:45:41.342Z,3052
2018-01-16T09:46:41.597Z,3116
2018-01-16T09:47:42.655Z,3156
2018-01-16T09:48:41.333Z,3236
2018-01-16T09:49:41.352Z,3428
2018-01-16T09:50:41.348Z,3624
2018-01-16T09:51:41.588Z,3712
2018-01-16T09:52:42.268Z,3700
2018-01-16T09:53:41.569Z,3688
2018-01-16T09:54:41.826Z,3748
2018-01-16T09:55:41.582Z,3988
2018-01-16T09:56:41.803Z,4496
2018-01-16T09:57:41.802Z,5020
2018-01-16T09:58:41.783Z,5300
2018-01-16T09:59:41.784Z,4208
2018-01-16T10:00:41.528Z,3232
2018-01-16T10:01:41.524Z,3188
2018-01-16T10:02:41.278Z,3264
2018-01-16T10:03:41.274Z,3308
2018-01-16T10:04:41.757Z,3296
2018-01-16T10:05:41.029Z,3172
2018-01-16T10:06:41.757Z,2892
2018-01-16T10:07:45.124Z,2488
2018-01-16T10:08:41.241Z,2192
2018-01-16T10:09:41.499Z,1920
2018-01-16T10:10:41.746Z,1844
2018-01-16T10:11:41.487Z,2152
2018-01-16T10:12:41.748Z,2424
2018-01-16T10:13:41.743Z,2632
2018-01-16T10:14:41.490Z,2720
2018-01-16T10:15:41.462Z,2536
2018-01-16T10:16:41.457Z,2260
2018-01-16T10:17:41.714Z,2052
2018-01-16T10:18:42.257Z,1876
2018-01-16T10:19:41.703Z,1604
2018-01-16T10:20:41.705Z,1404
2018-01-16T10:21:41.753Z,1348
2018-01-16T10:22:41.443Z,1300
2018-01-16T10:53:10.245Z,1828
2018-01-16T10:54:09.980Z,1720
2018-01-16T10:55:10.720Z,1668
2018-01-16T10:56:10.206Z,1824
2018-01-16T10:57:10.713Z,1832
2018-01-16T10:58:10.445Z,1988
2018-01-16T10:59:10.183Z,1964
2018-01-16T11:00:10.947Z,1988
2018-01-16T11:01:09.908Z,2552
2018-01-16T11:02:10.422Z,3176
2018-01-16T11:03:10.411Z,3980
2018-01-16T11:04:10.143Z,4748
2018-01-16T11:05:10.622Z,5140
2018-01-16T11:06:10.647Z,5152
2018-01-16T11:07:10.380Z,5108
2018-01-16T11:08:12.974Z,5032
2018-01-16T11:09:10.621Z,4996
2018-01-16T11:10:10.791Z,4976
2018-01-16T11:11:10.365Z,4824
2018-01-16T11:12:10.102Z,4780
2018-01-16T11:13:10.354Z,5180
2018-01-16T11:14:10.336Z,5276
2018-01-16T11:15:11.448Z,4904
2018-01-16T11:16:10.339Z,4260
2018-01-16T11:17:10.330Z,4068
2018-01-16T11:18:10.582Z,4124
2018-01-16T11:19:10.327Z,4180
2018-01-16T11:20:10.541Z,4052
2018-01-16T11:21:10.294Z,3940
2018-01-16T11:22:10.304Z,3684
2018-01-16T11:23:10.038Z,3332
2018-01-16T11:24:10.296Z,3184
2018-01-16T11:25:10.809Z,3056
2018-01-16T11:26:10.536Z,2920
2018-01-16T11:27:10.558Z,2756
2018-01-16T11:28:10.273Z,2596
2018-01-16T11:29:10.281Z,2568
2018-01-16T11:30:10.192Z,2520
2018-01-16T11:31:09.996Z,2404
2018-01-16T11:32:10.270Z,2224
2018-01-16T11:33:10.240Z,2156
2018-01-16T11:34:10.292Z,2100
2018-01-16T11:35:11.284Z,2084
2018-01-16T11:36:09.984Z,2060
2018-01-16T11:37:10.244Z,2004
2018-01-16T11:38:10.672Z,2004
2018-01-16T11:39:10.223Z,2052
2018-01-16T11:40:10.942Z,2108
2018-01-16T11:41:10.225Z,2116
2018-01-16T11:42:09.948Z,2156
2018-01-16T11:43:09.691Z,2272
2018-01-16T11:44:09.943Z,2272
2018-01-16T11:45:10.466Z,2216
2018-01-16T11:46:10.181Z,2216
2018-01-16T11:47:09.930Z,2208
2018-01-16T11:48:09.916Z,2144
2018-01-16T11:49:10.186Z,2068
2018-01-16T11:50:11.316Z,1988
2018-01-16T11:51:09.919Z,2072
2018-01-16T11:52:10.156Z,2232
2018-01-16T11:53:10.163Z,2340
2018-01-16T11:54:10.419Z,2384
2018-01-16T11:55:11.267Z,2344
2018-01-16T11:56:10.131Z,2252
2018-01-16T11:57:09.881Z,2224
2018-01-16T11:58:10.127Z,2312
2018-01-16T11:59:10.117Z,2452
2018-01-16T12:00:10.626Z,2704
2018-01-16T12:01:09.852Z,3012
2018-01-16T12:02:09.860Z,3376
2018-01-16T12:03:09.854Z,3468
2018-01-16T12:04:10.124Z,3664
2018-01-16T12:05:10.705Z,3924
2018-01-16T12:06:10.087Z,3920
2018-01-16T12:07:10.079Z,3628
2018-01-16T12:08:09.855Z,3248
2018-01-16T12:09:10.065Z,2948
2018-01-16T12:10:11.097Z,2600
2018-01-16T12:11:09.810Z,2172
2018-01-16T12:12:10.053Z,2036
2018-01-16T12:13:10.310Z,2076
2018-01-16T12:14:10.302Z,1876
2018-01-16T12:15:10.065Z,1620
2018-01-16T12:16:10.053Z,1476
2018-01-16T12:17:09.776Z,1444
2018-01-16T12:18:09.769Z,1444
2018-01-16T12:19:09.790Z,1404
2018-01-16T12:20:09.943Z,1308
2018-01-16T12:21:09.759Z,1296
2018-01-16T12:22:09.761Z,1396
2018-01-16T12:23:10.251Z,1436
2018-01-16T12:24:10.251Z,1236
2018-01-16T12:25:10.694Z,1104
2018-01-16T12:26:09.998Z,1076
2018-01-16T12:27:09.736Z,1080
2018-01-16T12:28:09.720Z,1096
2018-01-16T12:29:10.014Z,1056
2018-01-16T12:30:10.488Z,1044
2018-01-16T12:31:10.216Z,1168
2018-01-16T12:32:09.951Z,1800
2018-01-16T12:33:10.207Z,2116
2018-01-16T12:34:10.196Z,2572
2018-01-16T12:35:10.662Z,2984
2018-01-16T12:36:09.689Z,3256
2018-01-16T12:37:09.430Z,3336
2018-01-16T12:38:10.000Z,3244
2018-01-16T12:39:10.910Z,3532
2018-01-16T12:40:10.151Z,3740
2018-01-16T12:41:09.903Z,3612
2018-01-16T12:42:09.642Z,3756
2018-01-16T12:43:09.643Z,3652
2018-01-16T12:44:10.160Z,3248
2018-01-16T12:45:10.478Z,2976
2018-01-16T12:46:09.878Z,2864
2018-01-16T12:47:09.881Z,2936
2018-01-16T12:48:09.883Z,2896
2018-01-16T12:49:09.863Z,2364
2018-01-16T12:50:10.898Z,1968
2018-01-16T12:51:09.590Z,1844
2018-01-16T12:52:10.087Z,1516
2018-01-16T12:53:09.837Z,1304
2018-01-16T12:54:09.564Z,1232
2018-01-16T12:55:10.276Z,1360
2018-01-16T12:56:10.069Z,1620
2018-01-16T12:57:09.811Z,1828
2018-01-16T12:58:09.560Z,1780
2018-01-16T12:59:09.281Z,1908
2018-01-16T13:00:10.028Z,2012
2018-01-16T13:01:09.525Z,2180
2018-01-16T13:02:09.766Z,2772
2018-01-16T13:03:09.505Z,3180
2018-01-16T13:04:10.018Z,3664
2018-01-16T13:05:10.530Z,4020
2018-01-16T13:06:09.744Z,4440
2018-01-16T13:07:09.745Z,4660
2018-01-16T13:08:09.743Z,4344
2018-01-16T13:09:15.035Z,3884
2018-01-16T13:10:10.293Z,3380
2018-01-16T13:11:09.715Z,3232
2018-01-16T13:12:09.526Z,3532
2018-01-16T13:13:09.954Z,3796
2018-01-16T13:14:09.697Z,3988
2018-01-16T13:15:09.957Z,3964
2018-01-16T13:16:09.681Z,3936
2018-01-16T13:17:09.677Z,3808
2018-01-16T13:18:09.689Z,3748
2018-01-16T13:19:09.908Z,3328
2018-01-16T13:20:09.950Z,3320
2018-01-16T13:21:09.147Z,3548
2018-01-16T13:22:09.140Z,3352
2018-01-16T13:23:09.642Z,2888
2018-01-16T13:24:09.628Z,2648
2018-01-16T13:25:10.080Z,2520
2018-01-16T13:26:09.380Z,2592
2018-01-16T13:27:09.376Z,2904
2018-01-16T13:28:09.856Z,3072
2018-01-16T13:29:09.603Z,3328
2018-01-16T13:30:10.098Z,3848
2018-01-16T13:31:09.080Z,4684
2018-01-16T13:32:09.590Z,5448
2018-01-16T13:33:09.837Z,5948
2018-01-16T13:34:09.565Z,6224
2018-01-16T13:35:10.352Z,5960
2018-01-16T13:36:09.566Z,5496
2018-01-16T13:37:09.547Z,4692
2018-01-16T13:38:09.792Z,4516
2018-01-16T13:39:09.541Z,3852
2018-01-16T13:40:11.489Z,3620
2018-01-16T13:41:09.285Z,4132
2018-01-16T13:42:09.527Z,4528
2018-01-16T13:43:09.759Z,4868
2018-01-16T13:44:09.270Z,5012
2018-01-16T13:45:09.663Z,6056
2018-01-16T13:46:09.507Z,5828
2018-01-16T13:47:09.490Z,5272
2018-01-16T13:48:09.514Z,4820
2018-01-16T13:49:09.736Z,4356
2018-01-16T13:50:10.248Z,3724
2018-01-16T13:51:09.724Z,3476
2018-01-16T13:52:09.726Z,3324
2018-01-16T13:53:09.460Z,3228
2018-01-16T13:54:09.513Z,3120
2018-01-16T13:55:09.632Z,3268
2018-01-16T13:56:09.447Z,2968
2018-01-16T13:57:09.704Z,2564
2018-01-16T13:58:09.694Z,2300
2018-01-16T13:59:09.177Z,2552
2018-01-16T14:00:09.970Z,3760
2018-01-16T14:01:09.476Z,4680
2018-01-16T14:02:09.419Z,5408
2018-01-16T14:03:09.656Z,6092
2018-01-16T14:04:09.408Z,5664
2018-01-16T14:05:09.782Z,4960
2018-01-16T14:06:09.659Z,5028
2018-01-16T14:07:09.161Z,4504
2018-01-16T14:08:09.172Z,3952
2018-01-16T14:09:09.672Z,3608
2018-01-16T14:10:13.128Z,3464
2018-01-16T14:11:09.203Z,3372
2018-01-16T14:12:09.116Z,3256
2018-01-16T14:13:09.105Z,3024
2018-01-16T14:14:09.599Z,2620
2018-01-16T14:15:09.899Z,2168
2018-01-16T14:16:09.347Z,1964
2018-01-16T14:17:09.096Z,1996
2018-01-16T14:18:09.641Z,1976
2018-01-16T14:19:09.320Z,1960
2018-01-16T14:20:10.182Z,1944
2018-01-16T14:21:09.322Z,1904
2018-01-16T14:22:09.554Z,1980
2018-01-16T14:23:09.069Z,1860
2018-01-16T14:24:09.307Z,1672
2018-01-16T14:25:11.047Z,1496
2018-01-16T14:26:09.293Z,1328
2018-01-16T14:27:09.333Z,1228
2018-01-16T14:28:09.270Z,1088
2018-01-16T14:29:09.534Z,992
2018-01-16T14:30:09.969Z,948
2018-01-16T14:31:09.256Z,908
2018-01-16T14:32:09.252Z,848
2018-01-16T14:33:09.244Z,772